Time;durP1;ratioP1;P1;durP2;ratioP2;P2;SDS_P1;SDS_P2;PMS_P1;PMS_P2;Temp;Humidity;BMP_temperature;BMP_pressure;BME280_temperature;BME280_humidity;BME280_pressure;Samples;Min_cycle;Max_cycle;Signal;HPM_P1;HPM_P2
2022/11/04 00:01:17;;;;;;;11.18;5.35;;;;;;;;;;4971227;28;20727;-73
2022/11/04 00:03:43;;;;;;;11.88;5.75;;;;;;;;;;4983448;28;20113;-74
2022/11/04 00:06:09;;;;;;;11.10;5.30;;;;;;;;;;4977173;28;20033;-74
2022/11/04 00:08:35;;;;;;;9.63;5.93;;;;;;;;;;4972925;28;20030;-73
2022/11/04 00:13:47;;;;;;;14.13;6.18;;;;;;;;;;4972558;28;20054;-75
2022/11/04 00:19:01;;;;;;;8.45;4.60;;;;;;;;;;4968791;28;20037;-74
2022/11/04 00:29:43;;;;;;;11.70;6.10;;;;;;;;;;4970719;28;20117;-75
2022/11/04 00:34:55;;;;;;;12.63;6.25;;;;;;;;;;4973865;28;20186;-74
2022/11/04 00:37:21;;;;;;;14.25;6.35;;;;;;;;;;4977570;28;20030;-77
2022/11/04 00:39:47;;;;;;;13.13;6.30;;;;;;;;;;4972563;28;20035;-74
2022/11/04 00:42:13;;;;;;;10.10;6.07;;;;;;;;;;4969340;28;20042;-74
2022/11/04 00:44:39;;;;;;;13.80;5.13;;;;;;;;;;4978597;28;20031;-75
2022/11/04 00:47:05;;;;;;;13.77;5.15;;;;;;;;;;4979946;28;20086;-74
2022/11/04 00:49:31;;;;;;;11.68;6.43;;;;;;;;;;4962144;28;20076;-75
2022/11/04 00:51:57;;;;;;;11.73;5.38;;;;;;;;;;4977208;28;20034;-76
2022/11/04 00:54:23;;;;;;;8.80;4.72;;;;;;;;;;4973713;28;20527;-73
2022/11/04 00:56:49;;;;;;;10.18;5.68;;;;;;;;;;4972972;28;20097;-77
2022/11/04 00:59:16;;;;;;;12.02;5.18;;;;;;;;;;4982061;28;20089;-73
2022/11/04 01:01:42;;;;;;;8.88;5.15;;;;;;;;;;4970604;28;20051;-74
2022/11/04 01:04:09;;;;;;;8.85;5.20;;;;;;;;;;4982704;28;20030;-74
2022/11/04 01:06:35;;;;;;;8.23;4.47;;;;;;;;;;4972251;28;20483;-73
2022/11/04 01:09:07;;;;;;;9.85;4.97;;;;;;;;;;4974478;28;20419;-77
2022/11/04 01:11:33;;;;;;;11.82;5.82;;;;;;;;;;4985769;28;20564;-74
2022/11/04 01:13:59;;;;;;;7.47;4.65;;;;;;;;;;4967000;28;20131;-73
2022/11/04 01:16:25;;;;;;;14.60;8.57;;;;;;;;;;4968601;28;20608;-73
2022/11/04 01:18:52;;;;;;;9.10;6.50;;;;;;;;;;4968365;28;20145;-74
2022/11/04 01:21:18;;;;;;;11.38;5.88;;;;;;;;;;4985036;28;20034;-73
2022/11/04 01:23:45;;;;;;;7.03;4.65;;;;;;;;;;4970456;28;20033;-73
2022/11/04 01:26:15;;;;;;;8.77;5.65;;;;;;;;;;4973558;28;20622;-73
2022/11/04 01:28:42;;;;;;;12.70;5.90;;;;;;;;;;4960219;28;20110;-73
2022/11/04 01:31:09;;;;;;;17.00;6.72;;;;;;;;;;4965833;28;20061;-74
2022/11/04 01:33:36;;;;;;;10.20;5.80;;;;;;;;;;4971963;28;20135;-73
2022/11/04 01:36:03;;;;;;;9.27;5.85;;;;;;;;;;4991781;28;20154;-73
2022/11/04 01:38:29;;;;;;;12.50;6.57;;;;;;;;;;4968580;28;20073;-73
2022/11/04 01:40:55;;;;;;;8.35;5.13;;;;;;;;;;4975707;28;20046;-74
2022/11/04 01:43:22;;;;;;;14.73;6.00;;;;;;;;;;4970538;28;20472;-74
2022/11/04 01:45:56;;;;;;;10.93;6.03;;;;;;;;;;4965388;28;20471;-73
2022/11/04 01:48:25;;;;;;;9.60;5.97;;;;;;;;;;4970705;28;20038;-74
2022/11/04 01:50:53;;;;;;;10.10;6.07;;;;;;;;;;4983443;28;20019;-74
2022/11/04 01:53:32;;;;;;;10.88;6.95;;;;;;;;;;4967843;28;20388;-74
2022/11/04 01:55:59;;;;;;;10.00;5.72;;;;;;;;;;4968082;28;20026;-74
2022/11/04 01:58:27;;;;;;;13.30;6.68;;;;;;;;;;4967712;28;20045;-77
2022/11/04 02:00:54;;;;;;;11.70;6.00;;;;;;;;;;4968842;28;20050;-74
2022/11/04 02:03:22;;;;;;;10.25;6.20;;;;;;;;;;4983534;28;20061;-75
2022/11/04 02:05:48;;;;;;;10.15;5.47;;;;;;;;;;4964725;28;20107;-74
2022/11/04 02:08:15;;;;;;;10.18;5.85;;;;;;;;;;4976450;28;20027;-76
2022/11/04 02:10:43;;;;;;;8.65;5.38;;;;;;;;;;4983419;28;20034;-75
2022/11/04 02:13:09;;;;;;;10.07;5.82;;;;;;;;;;4973006;28;20037;-73
2022/11/04 02:15:54;;;;;;;9.07;4.90;;;;;;;;;;4965204;28;20046;-74
2022/11/04 02:18:20;;;;;;;16.30;5.38;;;;;;;;;;4970247;28;20475;-73
2022/11/04 02:20:49;;;;;;;9.00;5.43;;;;;;;;;;4969843;28;20027;-73
2022/11/04 02:23:15;;;;;;;9.23;5.25;;;;;;;;;;4964971;28;20496;-73
2022/11/04 02:25:41;;;;;;;9.15;4.50;;;;;;;;;;4969800;28;20022;-74
2022/11/04 02:28:33;;;;;;;7.82;4.70;;;;;;;;;;4965669;28;20086;-76
2022/11/04 02:31:05;;;;;;;9.30;4.70;;;;;;;;;;4974501;28;20011;-73
2022/11/04 02:33:31;;;;;;;8.00;4.53;;;;;;;;;;4971627;28;20042;-75
2022/11/04 02:35:57;;;;;;;9.73;5.00;;;;;;;;;;4982573;28;20026;-75
2022/11/04 02:38:32;;;;;;;7.75;4.53;;;;;;;;;;4972398;28;20031;-74
2022/11/04 02:41:17;;;;;;;9.30;4.85;;;;;;;;;;4969230;28;20022;-74
2022/11/04 02:43:56;;;;;;;12.32;4.60;;;;;;;;;;4968303;28;20038;-75
2022/11/04 02:46:23;;;;;;;8.30;5.15;;;;;;;;;;4962729;28;20331;-74
2022/11/04 02:48:54;;;;;;;7.57;5.05;;;;;;;;;;4968399;28;20027;-73
2022/11/04 02:51:27;;;;;;;7.28;4.50;;;;;;;;;;4981680;28;20072;-77
2022/11/04 02:54:00;;;;;;;8.95;4.90;;;;;;;;;;4969434;28;20162;-74
2022/11/04 02:56:26;;;;;;;6.15;4.57;;;;;;;;;;4965325;28;20449;-74
2022/11/04 02:59:04;;;;;;;10.85;4.97;;;;;;;;;;4974831;28;20457;-75
2022/11/04 03:01:33;;;;;;;11.68;5.38;;;;;;;;;;4958556;28;20125;-73
2022/11/04 03:04:18;;;;;;;9.93;5.00;;;;;;;;;;4969004;28;20566;-72
2022/11/04 03:06:45;;;;;;;8.32;5.05;;;;;;;;;;4967861;28;20031;-73
2022/11/04 03:09:12;;;;;;;14.23;6.03;;;;;;;;;;4969364;28;20030;-73
2022/11/04 03:11:40;;;;;;;9.60;5.18;;;;;;;;;;4962574;28;20089;-74
2022/11/04 03:14:18;;;;;;;10.95;5.05;;;;;;;;;;4969427;28;20027;-77
2022/11/04 03:17:05;;;;;;;7.90;5.10;;;;;;;;;;4970587;28;20023;-73
2022/11/04 03:19:39;;;;;;;11.50;5.68;;;;;;;;;;4967101;28;20027;-73
2022/11/04 03:22:32;;;;;;;14.80;5.30;;;;;;;;;;4981553;28;20306;-73
2022/11/04 03:24:58;;;;;;;15.00;5.50;;;;;;;;;;4971130;28;20051;-77
2022/11/04 03:27:32;;;;;;;7.65;4.10;;;;;;;;;;4954806;28;20028;-73
2022/11/04 03:30:04;;;;;;;11.33;4.70;;;;;;;;;;4982941;28;20090;-73
2022/11/04 03:32:36;;;;;;;9.15;5.82;;;;;;;;;;4986809;28;20026;-75
2022/11/04 03:35:02;;;;;;;7.15;4.70;;;;;;;;;;4979462;28;20073;-73
2022/11/04 03:37:28;;;;;;;12.90;4.95;;;;;;;;;;4982960;28;20019;-72
2022/11/04 03:39:55;;;;;;;9.85;4.90;;;;;;;;;;4968058;28;20599;-74
2022/11/04 03:42:22;;;;;;;8.15;4.53;;;;;;;;;;4969276;28;20038;-75
2022/11/04 03:44:52;;;;;;;8.55;4.95;;;;;;;;;;4967042;28;20022;-75
2022/11/04 03:47:20;;;;;;;9.43;5.13;;;;;;;;;;4988118;28;20037;-73
2022/11/04 03:49:49;;;;;;;15.43;5.05;;;;;;;;;;4973583;28;20808;-76
2022/11/04 03:52:16;;;;;;;6.40;4.75;;;;;;;;;;4972880;28;20014;-73
2022/11/04 03:54:42;;;;;;;6.63;4.63;;;;;;;;;;4964066;28;20053;-72
2022/11/04 03:57:30;;;;;;;12.93;4.85;;;;;;;;;;4959923;28;20035;-74
2022/11/04 03:59:56;;;;;;;7.85;5.38;;;;;;;;;;4973236;28;20030;-72
2022/11/04 04:02:26;;;;;;;8.18;4.75;;;;;;;;;;4964067;28;20110;-72
2022/11/04 04:04:56;;;;;;;9.88;5.28;;;;;;;;;;4978426;28;20039;-73
2022/11/04 04:07:34;;;;;;;8.13;5.10;;;;;;;;;;4978339;28;20568;-73
2022/11/04 04:10:37;;;;;;;8.50;4.68;;;;;;;;;;4971761;28;20058;-74
2022/11/04 04:12:56;;;;;;;10.48;5.10;;;;;;;;;;4978327;28;20031;-72
2022/11/04 04:15:25;;;;;;;8.90;5.13;;;;;;;;;;4967789;28;20480;-77
2022/11/04 04:17:55;;;;;;;10.15;5.35;;;;;;;;;;4969650;28;20109;-72
2022/11/04 04:20:23;;;;;;;10.10;5.07;;;;;;;;;;4973907;28;20027;-75
2022/11/04 04:22:55;;;;;;;7.05;4.30;;;;;;;;;;4985534;28;20550;-73
2022/11/04 04:28:10;;;;;;;8.10;4.47;;;;;;;;;;4973747;28;20074;-72
2022/11/04 04:30:36;;;;;;;8.27;5.13;;;;;;;;;;4969652;28;20111;-73
2022/11/04 04:33:07;;;;;;;11.50;5.13;;;;;;;;;;4968293;28;20093;-74
2022/11/04 04:35:41;;;;;;;8.80;4.47;;;;;;;;;;4969257;28;20069;-75
2022/11/04 04:46:27;;;;;;;7.97;5.53;;;;;;;;;;4972147;28;20026;-73
2022/11/04 04:48:54;;;;;;;5.40;3.92;;;;;;;;;;4973037;28;20035;-74
2022/11/04 04:51:20;;;;;;;8.00;4.45;;;;;;;;;;4968672;28;20072;-72
2022/11/04 04:53:46;;;;;;;8.07;4.20;;;;;;;;;;4971205;28;20023;-72
2022/11/04 04:56:12;;;;;;;7.47;5.45;;;;;;;;;;4967248;28;20037;-74
2022/11/04 04:58:38;;;;;;;6.40;4.13;;;;;;;;;;4973375;28;20041;-75
2022/11/04 05:01:04;;;;;;;7.40;4.25;;;;;;;;;;4965543;28;20492;-73
2022/11/04 05:03:31;;;;;;;6.70;4.53;;;;;;;;;;4981502;28;20051;-74
2022/11/04 05:05:58;;;;;;;7.13;4.35;;;;;;;;;;4974120;28;20078;-72
2022/11/04 05:08:25;;;;;;;14.52;5.15;;;;;;;;;;4972764;28;20016;-74
2022/11/04 05:10:51;;;;;;;7.10;5.40;;;;;;;;;;4970625;28;20023;-73
2022/11/04 05:13:26;;;;;;;5.47;4.63;;;;;;;;;;4969983;28;20054;-74
2022/11/04 05:15:52;;;;;;;5.28;4.22;;;;;;;;;;4972853;28;20039;-77
2022/11/04 05:18:18;;;;;;;10.70;5.30;;;;;;;;;;4966125;28;20037;-74
2022/11/04 05:20:45;;;;;;;7.50;4.50;;;;;;;;;;4970197;28;20046;-73
2022/11/04 05:23:12;;;;;;;8.45;4.95;;;;;;;;;;4968733;28;20037;-73
2022/11/04 05:25:39;;;;;;;11.18;5.72;;;;;;;;;;4966293;28;20043;-73
2022/11/04 05:28:05;;;;;;;15.45;7.03;;;;;;;;;;4968757;28;20126;-75
2022/11/04 05:30:31;;;;;;;18.45;7.15;;;;;;;;;;4963571;28;20480;-74
2022/11/04 05:32:58;;;;;;;11.80;5.78;;;;;;;;;;4991905;28;20033;-74
2022/11/04 05:35:24;;;;;;;27.08;6.55;;;;;;;;;;4969498;28;20034;-73
2022/11/04 05:37:50;;;;;;;15.68;5.88;;;;;;;;;;4981142;28;20070;-73
2022/11/04 05:40:16;;;;;;;16.08;6.25;;;;;;;;;;4963621;28;20086;-73
2022/11/04 05:42:42;;;;;;;16.15;7.03;;;;;;;;;;4963196;28;20035;-76
2022/11/04 05:45:08;;;;;;;40.00;6.65;;;;;;;;;;4969653;28;20054;-73
2022/11/04 05:47:35;;;;;;;15.73;5.93;;;;;;;;;;4965639;28;20018;-73
2022/11/04 05:50:01;;;;;;;16.45;6.22;;;;;;;;;;4966991;28;20400;-76
2022/11/04 05:52:27;;;;;;;17.75;6.45;;;;;;;;;;4973044;28;20106;-73
2022/11/04 05:54:53;;;;;;;15.35;5.55;;;;;;;;;;4981928;28;20041;-73
2022/11/04 05:57:19;;;;;;;16.35;7.15;;;;;;;;;;4974981;28;20035;-78
2022/11/04 05:59:45;;;;;;;13.45;6.13;;;;;;;;;;4971330;28;20055;-75
2022/11/04 06:02:11;;;;;;;14.77;5.88;;;;;;;;;;4970444;28;20118;-74
2022/11/04 06:04:37;;;;;;;10.98;6.22;;;;;;;;;;4970089;28;20353;-76
2022/11/04 06:07:04;;;;;;;14.65;6.57;;;;;;;;;;4971793;28;20049;-74
2022/11/04 06:09:39;;;;;;;16.88;7.22;;;;;;;;;;4966355;28;20027;-73
2022/11/04 06:12:05;;;;;;;10.50;6.13;;;;;;;;;;4980297;28;20074;-74
2022/11/04 06:14:31;;;;;;;22.60;6.28;;;;;;;;;;4966427;28;20031;-73
2022/11/04 06:16:58;;;;;;;14.25;7.05;;;;;;;;;;4966622;28;20046;-75
2022/11/04 06:19:24;;;;;;;15.00;7.03;;;;;;;;;;4985081;28;20035;-72
2022/11/04 06:21:51;;;;;;;15.98;7.32;;;;;;;;;;4968511;28;20448;-74
2022/11/04 06:24:17;;;;;;;14.70;7.50;;;;;;;;;;4965927;28;20030;-72
2022/11/04 06:26:43;;;;;;;13.13;7.15;;;;;;;;;;4959842;28;20042;-72
2022/11/04 06:29:09;;;;;;;15.52;6.57;;;;;;;;;;4974463;28;20045;-73
2022/11/04 06:31:35;;;;;;;13.23;7.18;;;;;;;;;;4961448;28;20023;-77
2022/11/04 06:34:01;;;;;;;26.85;8.75;;;;;;;;;;4963387;28;20400;-74
2022/11/04 06:36:27;;;;;;;11.40;7.25;;;;;;;;;;4964399;28;20042;-73
2022/11/04 06:38:53;;;;;;;14.02;7.07;;;;;;;;;;4969434;28;20050;-73
2022/11/04 06:41:20;;;;;;;16.38;7.85;;;;;;;;;;4967298;28;20492;-76
2022/11/04 06:43:46;;;;;;;14.20;7.20;;;;;;;;;;4966918;28;20491;-73
2022/11/04 06:46:24;;;;;;;14.18;7.03;;;;;;;;;;4966843;28;21081;-75
2022/11/04 06:48:50;;;;;;;17.75;7.18;;;;;;;;;;4974887;28;20030;-74
2022/11/04 06:51:16;;;;;;;12.90;6.13;;;;;;;;;;4962558;28;20702;-74
2022/11/04 06:53:42;;;;;;;10.38;6.55;;;;;;;;;;4972382;28;20038;-74
2022/11/04 06:56:09;;;;;;;11.02;6.18;;;;;;;;;;4967409;28;20753;-73
2022/11/04 06:58:36;;;;;;;11.02;6.90;;;;;;;;;;4970742;28;20163;-73
2022/11/04 07:01:03;;;;;;;10.77;5.93;;;;;;;;;;4978015;28;20047;-73
2022/11/04 07:03:29;;;;;;;11.88;6.25;;;;;;;;;;4963296;28;20110;-74
2022/11/04 07:05:55;;;;;;;10.60;6.47;;;;;;;;;;4967616;28;20027;-73
2022/11/04 07:08:21;;;;;;;11.18;5.93;;;;;;;;;;4968444;28;20102;-77
2022/11/04 07:10:47;;;;;;;9.80;5.85;;;;;;;;;;4967319;28;20110;-74
2022/11/04 07:13:15;;;;;;;10.50;5.55;;;;;;;;;;4968017;28;20027;-74
2022/11/04 07:15:41;;;;;;;12.57;6.13;;;;;;;;;;4982236;28;20038;-75
2022/11/04 07:18:07;;;;;;;12.60;5.88;;;;;;;;;;4972761;28;20018;-75
2022/11/04 07:20:34;;;;;;;8.38;5.97;;;;;;;;;;4971042;28;20106;-74
2022/11/04 07:23:00;;;;;;;8.80;5.18;;;;;;;;;;4967161;28;20027;-74
2022/11/04 07:25:26;;;;;;;8.30;5.63;;;;;;;;;;4982742;28;20113;-75
2022/11/04 07:27:52;;;;;;;9.00;5.50;;;;;;;;;;4963304;28;20062;-75
2022/11/04 07:30:19;;;;;;;8.48;6.20;;;;;;;;;;4981438;28;20026;-74
2022/11/04 07:32:45;;;;;;;8.02;5.60;;;;;;;;;;4965099;28;20023;-77
2022/11/04 07:35:12;;;;;;;8.35;4.80;;;;;;;;;;4969948;28;20030;-75
2022/11/04 07:37:38;;;;;;;7.55;5.20;;;;;;;;;;4985296;28;20472;-73
2022/11/04 07:40:08;;;;;;;8.65;4.85;;;;;;;;;;4965368;28;20027;-74
2022/11/04 07:42:34;;;;;;;10.15;5.63;;;;;;;;;;4964830;28;20019;-74
2022/11/04 07:45:00;;;;;;;9.02;5.55;;;;;;;;;;4964563;28;20039;-73
2022/11/04 07:47:29;;;;;;;10.40;5.32;;;;;;;;;;4966290;28;20412;-73
2022/11/04 07:49:55;;;;;;;9.23;6.07;;;;;;;;;;4966077;28;20793;-74
2022/11/04 07:52:21;;;;;;;11.32;6.38;;;;;;;;;;4963630;28;20027;-76
2022/11/04 07:54:48;;;;;;;8.38;6.90;;;;;;;;;;4964364;28;20034;-74
2022/11/04 07:57:14;;;;;;;8.52;5.43;;;;;;;;;;4982228;28;20027;-75
2022/11/04 07:59:40;;;;;;;8.30;5.10;;;;;;;;;;4968632;28;20031;-74
2022/11/04 08:02:06;;;;;;;9.75;5.07;;;;;;;;;;4965887;28;20051;-73
2022/11/04 08:04:32;;;;;;;9.05;5.13;;;;;;;;;;4965727;28;20039;-73
2022/11/04 08:06:58;;;;;;;7.25;4.80;;;;;;;;;;4966400;28;20027;-73
2022/11/04 08:09:25;;;;;;;8.23;4.95;;;;;;;;;;4970826;28;20038;-72
2022/11/04 08:11:51;;;;;;;6.65;4.75;;;;;;;;;;4969001;28;20027;-73
2022/11/04 08:14:17;;;;;;;11.73;4.63;;;;;;;;;;4974430;28;20511;-75
2022/11/04 08:16:43;;;;;;;5.75;3.95;;;;;;;;;;4969696;28;20026;-76
2022/11/04 08:19:09;;;;;;;7.53;4.00;;;;;;;;;;4970094;28;20030;-73
2022/11/04 08:21:35;;;;;;;9.48;4.63;;;;;;;;;;4968077;28;20094;-76
2022/11/04 08:24:04;;;;;;;8.50;4.20;;;;;;;;;;4974525;28;20089;-74
2022/11/04 08:26:31;;;;;;;7.40;4.53;;;;;;;;;;4983566;28;20090;-73
2022/11/04 08:28:58;;;;;;;10.30;5.88;;;;;;;;;;4962677;28;20041;-74
2022/11/04 08:31:28;;;;;;;11.55;4.72;;;;;;;;;;4972582;28;20118;-75
2022/11/04 08:33:54;;;;;;;6.78;4.50;;;;;;;;;;4968753;28;20034;-73
2022/11/04 08:36:25;;;;;;;10.90;4.40;;;;;;;;;;4971622;28;20038;-76
2022/11/04 08:38:51;;;;;;;8.98;4.70;;;;;;;;;;4974019;28;20081;-73
2022/11/04 08:41:19;;;;;;;6.15;3.88;;;;;;;;;;4970254;28;20073;-73
2022/11/04 08:43:46;;;;;;;14.43;4.32;;;;;;;;;;4979092;28;20085;-73
2022/11/04 08:46:12;;;;;;;6.90;3.72;;;;;;;;;;4965410;28;20097;-76
2022/11/04 08:48:39;;;;;;;7.82;4.38;;;;;;;;;;4963988;28;20038;-75
2022/11/04 08:51:10;;;;;;;5.97;4.15;;;;;;;;;;4964449;28;20037;-78
2022/11/04 08:53:36;;;;;;;7.45;3.88;;;;;;;;;;4965533;28;20142;-76
2022/11/04 08:56:21;;;;;;;6.70;4.50;;;;;;;;;;4979582;28;20031;-75
2022/11/04 08:58:47;;;;;;;5.45;3.70;;;;;;;;;;4982558;28;20029;-75
2022/11/04 09:01:14;;;;;;;8.18;4.35;;;;;;;;;;4964711;28;20415;-78
2022/11/04 09:03:41;;;;;;;8.55;3.80;;;;;;;;;;4968633;28;20034;-76
2022/11/04 09:06:12;;;;;;;9.55;4.40;;;;;;;;;;4979014;28;20040;-77
2022/11/04 09:08:38;;;;;;;8.18;4.10;;;;;;;;;;4966246;28;20030;-78
2022/11/04 09:11:08;;;;;;;8.20;4.95;;;;;;;;;;4964702;28;20105;-80
2022/11/04 09:13:35;;;;;;;6.57;3.97;;;;;;;;;;4966305;28;20650;-79
2022/11/04 09:16:01;;;;;;;5.15;3.63;;;;;;;;;;4966522;28;20041;-77
2022/11/04 09:18:27;;;;;;;6.20;3.30;;;;;;;;;;4966167;28;20134;-78
2022/11/04 09:20:53;;;;;;;7.03;3.58;;;;;;;;;;4968056;28;20034;-78
2022/11/04 09:23:19;;;;;;;7.90;4.05;;;;;;;;;;4965127;28;20035;-78
2022/11/04 09:25:46;;;;;;;7.43;4.28;;;;;;;;;;4964132;28;20109;-80
2022/11/04 09:28:12;;;;;;;6.18;3.47;;;;;;;;;;4965504;28;20027;-81
2022/11/04 09:30:38;;;;;;;6.70;3.40;;;;;;;;;;4968037;28;20106;-78
2022/11/04 09:33:04;;;;;;;6.75;3.10;;;;;;;;;;4969345;28;20059;-79
2022/11/04 09:35:30;;;;;;;8.68;3.47;;;;;;;;;;4968073;28;20615;-79
2022/11/04 09:37:58;;;;;;;7.82;3.88;;;;;;;;;;4978484;28;20518;-77
2022/11/04 09:40:25;;;;;;;5.40;3.55;;;;;;;;;;4966635;28;20030;-77
2022/11/04 09:42:54;;;;;;;4.15;3.15;;;;;;;;;;4965847;28;20109;-78
2022/11/04 09:45:24;;;;;;;8.73;3.05;;;;;;;;;;4966368;28;20031;-78
2022/11/04 09:47:52;;;;;;;4.85;2.83;;;;;;;;;;4967047;28;20031;-77
2022/11/04 09:50:24;;;;;;;5.78;3.08;;;;;;;;;;4966440;28;20206;-78
2022/11/04 09:53:10;;;;;;;4.60;3.00;;;;;;;;;;4982032;28;20029;-79
2022/11/04 09:55:51;;;;;;;4.88;3.10;;;;;;;;;;4965938;28;20031;-78
2022/11/04 09:58:18;;;;;;;4.85;2.58;;;;;;;;;;4962515;28;20027;-77
2022/11/04 10:00:46;;;;;;;3.13;2.83;;;;;;;;;;4981216;28;20035;-77
2022/11/04 10:03:19;;;;;;;3.80;2.40;;;;;;;;;;4980451;28;20089;-78
2022/11/04 10:05:52;;;;;;;2.95;2.10;;;;;;;;;;4963522;28;21400;-77
2022/11/04 10:08:30;;;;;;;3.83;2.60;;;;;;;;;;4983605;28;20571;-77
2022/11/04 10:10:59;;;;;;;5.53;2.55;;;;;;;;;;4966453;28;20055;-77
2022/11/04 10:13:30;;;;;;;3.67;2.40;;;;;;;;;;4980247;28;20098;-77
2022/11/04 10:16:15;;;;;;;6.70;3.58;;;;;;;;;;4965485;28;20030;-81
2022/11/04 10:18:45;;;;;;;6.67;2.43;;;;;;;;;;4965018;28;20484;-77
2022/11/04 10:21:11;;;;;;;3.53;2.13;;;;;;;;;;4966924;28;20054;-78
2022/11/04 10:23:55;;;;;;;5.07;2.63;;;;;;;;;;4962660;28;20057;-79
2022/11/04 10:26:39;;;;;;;3.28;2.28;;;;;;;;;;4967874;28;20037;-78
2022/11/04 10:29:06;;;;;;;5.97;2.25;;;;;;;;;;4966465;28;20105;-79
2022/11/04 10:31:36;;;;;;;5.60;2.50;;;;;;;;;;4981133;28;20379;-78
2022/11/04 10:34:07;;;;;;;5.20;2.42;;;;;;;;;;4980120;28;20056;-77
2022/11/04 10:36:34;;;;;;;3.60;2.20;;;;;;;;;;4966480;28;20568;-78
2022/11/04 10:39:03;;;;;;;4.15;2.42;;;;;;;;;;4983022;28;20033;-77
2022/11/04 10:41:33;;;;;;;4.90;2.63;;;;;;;;;;4968818;28;20034;-78
2022/11/04 10:43:59;;;;;;;4.53;2.85;;;;;;;;;;4966659;28;20472;-78
2022/11/04 10:46:46;;;;;;;11.90;2.53;;;;;;;;;;4964840;28;20063;-78
2022/11/04 10:49:28;;;;;;;5.82;3.45;;;;;;;;;;4982537;28;20074;-78
2022/11/04 10:51:54;;;;;;;8.43;3.47;;;;;;;;;;4963595;28;20695;-79
2022/11/04 10:54:21;;;;;;;5.28;2.85;;;;;;;;;;4980019;28;20713;-78
2022/11/04 10:56:52;;;;;;;4.65;2.63;;;;;;;;;;4966989;28;20031;-79
2022/11/04 10:59:23;;;;;;;6.97;3.72;;;;;;;;;;4965701;28;20023;-81
2022/11/04 11:01:50;;;;;;;5.38;2.70;;;;;;;;;;4964834;28;20780;-77
2022/11/04 11:04:27;;;;;;;4.10;2.60;;;;;;;;;;4977178;28;20388;-80
2022/11/04 11:06:55;;;;;;;4.38;2.55;;;;;;;;;;4964483;28;20568;-80
2022/11/04 11:09:27;;;;;;;3.03;2.20;;;;;;;;;;4963104;28;20046;-80
2022/11/04 11:11:54;;;;;;;5.20;2.65;;;;;;;;;;4980965;28;20093;-78
2022/11/04 11:14:29;;;;;;;3.85;2.97;;;;;;;;;;4962715;28;20066;-77
2022/11/04 11:17:14;;;;;;;4.88;2.20;;;;;;;;;;4980278;28;20045;-77
2022/11/04 11:19:58;;;;;;;5.43;3.13;;;;;;;;;;4964991;28;20106;-79
2022/11/04 11:22:32;;;;;;;8.55;3.10;;;;;;;;;;4963721;28;20041;-78
2022/11/04 11:25:16;;;;;;;5.93;2.78;;;;;;;;;;4976362;28;20043;-78
2022/11/04 11:27:46;;;;;;;4.82;2.78;;;;;;;;;;4966651;28;20042;-78
2022/11/04 11:30:41;;;;;;;19.73;3.10;;;;;;;;;;4980774;28;20474;-78
2022/11/04 11:33:28;;;;;;;5.47;2.70;;;;;;;;;;4948927;28;20057;-78
2022/11/04 11:35:58;;;;;;;4.25;2.60;;;;;;;;;;4965555;28;20033;-78
2022/11/04 11:38:28;;;;;;;8.25;2.55;;;;;;;;;;4966574;28;20331;-77
2022/11/04 11:41:09;;;;;;;4.72;3.80;;;;;;;;;;4967552;28;20027;-80
2022/11/04 11:43:38;;;;;;;6.18;3.50;;;;;;;;;;4968124;28;20034;-78
2022/11/04 11:46:04;;;;;;;3.63;2.40;;;;;;;;;;4969417;28;20031;-81
2022/11/04 11:48:33;;;;;;;8.57;3.55;;;;;;;;;;4967823;28;20035;-79
2022/11/04 11:51:00;;;;;;;8.30;4.28;;;;;;;;;;4985078;28;20396;-78
2022/11/04 11:53:34;;;;;;;5.85;2.30;;;;;;;;;;4950435;28;20034;-78
2022/11/04 11:56:24;;;;;;;3.45;2.25;;;;;;;;;;4967882;28;20077;-79
2022/11/04 11:58:58;;;;;;;5.88;2.72;;;;;;;;;;4969593;28;20019;-77
2022/11/04 12:01:24;;;;;;;4.50;2.88;;;;;;;;;;4969281;28;20100;-78
2022/11/04 12:03:50;;;;;;;3.38;2.55;;;;;;;;;;4965773;28;20118;-77
2022/11/04 12:06:37;;;;;;;5.53;2.78;;;;;;;;;;4967389;28;20082;-78
2022/11/04 12:09:07;;;;;;;4.38;2.50;;;;;;;;;;4979970;28;20476;-78
2022/11/04 12:11:37;;;;;;;6.47;3.05;;;;;;;;;;4968021;28;20062;-77
2022/11/04 12:14:05;;;;;;;3.72;2.50;;;;;;;;;;4967840;28;20030;-78
2022/11/04 12:16:43;;;;;;;8.73;3.55;;;;;;;;;;4969388;28;20034;-78
2022/11/04 12:19:09;;;;;;;5.32;2.40;;;;;;;;;;4982930;28;20030;-78
2022/11/04 12:21:39;;;;;;;5.28;2.55;;;;;;;;;;4983715;28;20035;-77
2022/11/04 12:24:21;;;;;;;7.97;2.75;;;;;;;;;;4968910;28;20048;-79
2022/11/04 12:27:01;;;;;;;3.97;2.38;;;;;;;;;;4968219;28;20102;-79
2022/11/04 12:29:42;;;;;;;7.32;3.28;;;;;;;;;;4968639;28;20031;-80
2022/11/04 12:32:09;;;;;;;7.72;4.03;;;;;;;;;;4965502;28;20031;-78
2022/11/04 12:34:54;;;;;;;6.68;4.38;;;;;;;;;;4970266;28;20385;-78
2022/11/04 12:37:29;;;;;;;3.65;2.20;;;;;;;;;;4979965;28;20533;-78
2022/11/04 12:40:12;;;;;;;5.82;2.75;;;;;;;;;;4966497;28;20066;-77
2022/11/04 12:42:43;;;;;;;4.35;2.55;;;;;;;;;;4968356;28;20114;-78
2022/11/04 12:45:12;;;;;;;5.32;2.80;;;;;;;;;;4983082;28;20106;-80
2022/11/04 12:47:40;;;;;;;8.82;3.85;;;;;;;;;;4969144;28;20030;-79
2022/11/04 12:50:06;;;;;;;4.03;2.75;;;;;;;;;;4964264;28;20109;-79
2022/11/04 12:52:53;;;;;;;3.30;2.22;;;;;;;;;;4983341;28;20027;-78
2022/11/04 12:55:28;;;;;;;5.45;2.30;;;;;;;;;;4964588;28;20051;-75
2022/11/04 12:58:08;;;;;;;7.05;3.17;;;;;;;;;;4983488;28;20817;-76
2022/11/04 13:00:35;;;;;;;6.15;2.05;;;;;;;;;;4980336;28;20043;-79
2022/11/04 13:03:21;;;;;;;5.07;2.20;;;;;;;;;;4982996;28;20039;-77
2022/11/04 13:05:47;;;;;;;5.00;2.25;;;;;;;;;;4970689;28;20027;-80
2022/11/04 13:08:13;;;;;;;6.60;2.25;;;;;;;;;;4970096;28;20034;-78
2022/11/04 13:10:39;;;;;;;4.90;2.25;;;;;;;;;;4969235;28;21317;-76
2022/11/04 13:13:06;;;;;;;5.20;2.75;;;;;;;;;;4965733;28;20027;-79
2022/11/04 13:15:37;;;;;;;4.60;2.75;;;;;;;;;;4967894;28;20029;-76
2022/11/04 13:18:05;;;;;;;5.70;2.28;;;;;;;;;;4982173;28;21392;-77
2022/11/04 13:20:42;;;;;;;4.05;2.42;;;;;;;;;;4963522;28;20034;-78
2022/11/04 13:23:12;;;;;;;4.35;2.92;;;;;;;;;;4968054;28;20027;-76
2022/11/04 13:25:43;;;;;;;4.78;2.58;;;;;;;;;;4967644;28;20023;-79
2022/11/04 13:28:12;;;;;;;4.55;2.67;;;;;;;;;;4978140;28;20369;-81
2022/11/04 13:30:53;;;;;;;4.20;2.20;;;;;;;;;;4965915;28;20030;-81
2022/11/04 13:33:45;;;;;;;5.18;2.50;;;;;;;;;;4963677;28;20042;-79
2022/11/04 13:36:35;;;;;;;5.65;2.63;;;;;;;;;;4967908;28;20039;-79
2022/11/04 13:39:07;;;;;;;6.47;3.00;;;;;;;;;;4964494;28;20404;-81
2022/11/04 13:41:39;;;;;;;5.55;2.60;;;;;;;;;;4968292;28;20472;-81
2022/11/04 13:44:12;;;;;;;5.30;2.85;;;;;;;;;;4965968;28;20518;-79
2022/11/04 13:46:38;;;;;;;10.23;2.72;;;;;;;;;;4965424;28;20035;-80
2022/11/04 13:49:11;;;;;;;4.60;3.45;;;;;;;;;;4965530;28;20460;-78
2022/11/04 13:51:43;;;;;;;5.30;2.67;;;;;;;;;;4965271;28;20058;-77
2022/11/04 13:54:30;;;;;;;5.68;2.80;;;;;;;;;;4967871;28;20038;-79
2022/11/04 13:57:06;;;;;;;5.60;2.50;;;;;;;;;;4965755;28;20066;-77
2022/11/04 13:59:32;;;;;;;6.47;3.42;;;;;;;;;;4980042;28;20038;-80
2022/11/04 14:02:10;;;;;;;6.88;2.50;;;;;;;;;;4965979;28;20062;-75
2022/11/04 14:04:37;;;;;;;6.30;3.30;;;;;;;;;;4982236;28;20106;-78
2022/11/04 14:07:07;;;;;;;4.30;2.28;;;;;;;;;;4965753;28;20468;-77
2022/11/04 14:09:39;;;;;;;5.60;3.38;;;;;;;;;;4965541;28;20027;-78
2022/11/04 14:12:08;;;;;;;4.25;3.05;;;;;;;;;;4966581;28;20031;-78
2022/11/04 14:14:35;;;;;;;4.60;2.15;;;;;;;;;;4968784;28;20026;-77
2022/11/04 14:17:06;;;;;;;3.75;2.20;;;;;;;;;;4964103;28;20034;-77
2022/11/04 14:19:56;;;;;;;6.13;2.60;;;;;;;;;;4968065;28;20109;-78
2022/11/04 14:22:33;;;;;;;4.90;2.53;;;;;;;;;;4964845;28;20038;-78
2022/11/04 14:25:35;;;;;;;7.50;3.40;;;;;;;;;;4967122;28;20038;-82
2022/11/04 14:28:09;;;;;;;4.57;2.30;;;;;;;;;;4915453;29;20470;-80
2022/11/04 14:30:37;;;;;;;6.90;2.70;;;;;;;;;;4970883;28;20045;-79
2022/11/04 14:33:06;;;;;;;4.05;2.45;;;;;;;;;;4966437;28;20047;-79
2022/11/04 14:35:32;;;;;;;6.45;3.63;;;;;;;;;;4968994;28;20396;-79
2022/11/04 14:38:04;;;;;;;4.32;2.55;;;;;;;;;;4966072;28;20038;-79
2022/11/04 14:40:53;;;;;;;5.10;3.00;;;;;;;;;;4974152;28;20027;-80
2022/11/04 14:43:34;;;;;;;4.43;2.40;;;;;;;;;;4964335;28;20039;-79
2022/11/04 14:46:01;;;;;;;6.13;3.72;;;;;;;;;;4975368;28;20030;-79
2022/11/04 14:48:28;;;;;;;5.57;3.15;;;;;;;;;;4965107;28;20543;-79
2022/11/04 14:50:55;;;;;;;10.07;4.05;;;;;;;;;;4965955;28;20027;-78
2022/11/04 14:53:54;;;;;;;7.22;3.30;;;;;;;;;;4983420;28;20114;-78
2022/11/04 14:56:22;;;;;;;7.68;3.33;;;;;;;;;;4976501;28;20054;-78
2022/11/04 14:58:58;;;;;;;12.82;3.47;;;;;;;;;;4968922;28;20037;-78
2022/11/04 15:01:25;;;;;;;4.70;3.00;;;;;;;;;;4964301;28;20162;-77
2022/11/04 15:03:52;;;;;;;4.10;2.78;;;;;;;;;;4968007;28;20070;-79
2022/11/04 15:06:27;;;;;;;3.72;2.45;;;;;;;;;;4979034;28;20467;-79
2022/11/04 15:08:54;;;;;;;7.28;2.92;;;;;;;;;;4968721;28;20110;-77
2022/11/04 15:14:15;;;;;;;5.13;2.40;;;;;;;;;;4971442;28;20833;-78
2022/11/04 15:16:43;;;;;;;3.05;2.30;;;;;;;;;;4970449;28;20020;-78
2022/11/04 15:19:09;;;;;;;3.00;2.30;;;;;;;;;;4989143;28;20058;-76
2022/11/04 15:21:40;;;;;;;4.68;2.55;;;;;;;;;;4988240;28;20444;-78
2022/11/04 15:24:06;;;;;;;4.78;2.67;;;;;;;;;;4988249;28;20034;-82
2022/11/04 15:26:34;;;;;;;4.53;2.40;;;;;;;;;;4973466;28;20038;-78